This is the latest recevied weather packets stored in our database for station/object WB0VGI-1. If no packets are shown the sender has not sent any weather packets the latest 10 day(s).
| Time | Temp. | Humidity | Pressure | Rain* | Wind** | Luminosity | Snow |
|---|---|---|---|---|---|---|---|
| 1777741626 | 13.89° C | 39% | 1019.6 hPa | 0 mm | - | - | - |
| 1777740426 | 13.33° C | 41% | 1020.1 hPa | 0 mm | - | - | - |
| 1777739226 | 12.22° C | 40% | 1020.5 hPa | 0 mm | - | - | - |
| 1777738026 | 12.22° C | 41% | 1020.8 hPa | 0 mm | - | - | - |
| 1777736826 | 12.22° C | 42% | 1021 hPa | 0 mm | - | - | - |
| 1777735626 | 11.67° C | 44% | 1021.2 hPa | 0 mm | - | - | - |
| 1777734426 | 11.11° C | 46% | 1021.4 hPa | 0 mm | - | - | - |
| 1777733226 | 10.56° C | 48% | 1021.6 hPa | 0 mm | - | - | - |
| 1777732026 | 10° C | 48% | 1021.9 hPa | 0 mm | - | - | - |
| 1777729626 | 7.78° C | 55% | 1022.4 hPa | 0 mm | - | - | - |
| 1777728426 | 6.67° C | 61% | 1022.4 hPa | 0 mm | - | - | - |
| 1777727226 | 5.56° C | 65% | 1022.7 hPa | 0 mm | - | - | - |
| 1777726026 | 3.89° C | 70% | 1022.8 hPa | 0 mm | - | - | - |
| 1777724826 | 2.78° C | 74% | 1022.9 hPa | 0 mm | - | - | - |
| 1777723626 | 2.78° C | 72% | 1023 hPa | 0 mm | - | - | - |
| 1777722426 | 2.78° C | 64% | 1022.9 hPa | 0 mm | - | - | - |
| 1777721226 | 3.33° C | 59% | 1022.8 hPa | 0 mm | - | - | - |
| 1777720026 | 3.33° C | 59% | 1022.7 hPa | 0 mm | - | - | - |
| 1777718826 | 3.89° C | 57% | 1022.7 hPa | 0 mm | - | - | - |
| 1777717626 | 3.89° C | 57% | 1022.7 hPa | 0 mm | - | - | - |
| 1777716426 | 3.89° C | 56% | 1022.6 hPa | 0 mm | - | - | - |
| 1777715226 | 4.44° C | 56% | 1022.5 hPa | 0 mm | - | - | - |
| 1777714026 | 4.44° C | 56% | 1022.5 hPa | 0 mm | - | - | - |
| 1777712826 | 3.89° C | 58% | 1022.5 hPa | 0 mm | - | - | - |
| 1777712707 | 3.89° C | 58% | 1022.5 hPa | 0 mm | - | - | - |
* Rain latest hour (hover to see other rain measurements)
** Current wind speed in m/s (hover to see current wind gust speed)